createdAt,value
2022-11-13T00:04:47.887Z,3.92
2022-11-13T00:07:35.165Z,5.93
2022-11-13T00:10:24.343Z,5.55
2022-11-13T00:13:11.753Z,4.25
2022-11-13T00:16:05.061Z,4.65
2022-11-13T00:18:52.261Z,4.05
2022-11-13T00:24:26.405Z,3.38
2022-11-13T00:27:13.646Z,3.45
2022-11-13T00:30:00.824Z,4.10
2022-11-13T00:32:47.960Z,3.25
2022-11-13T00:35:36.022Z,2.85
2022-11-13T00:41:10.109Z,3.80
2022-11-13T00:46:44.622Z,3.53
2022-11-13T00:49:31.899Z,3.70
2022-11-13T00:52:18.929Z,3.53
2022-11-13T00:55:06.931Z,3.65
2022-11-13T00:57:54.743Z,4.95
2022-11-13T01:00:43.797Z,4.07
2022-11-13T01:03:31.109Z,4.25
2022-11-13T01:06:25.310Z,4.18
2022-11-13T01:09:12.360Z,3.80
2022-11-13T01:11:59.652Z,6.32
2022-11-13T01:14:47.042Z,5.03
2022-11-13T01:17:34.107Z,4.78
2022-11-13T01:20:21.410Z,4.40
2022-11-13T01:23:09.457Z,4.57
2022-11-13T01:25:56.854Z,4.55
2022-11-13T01:28:45.704Z,5.82
2022-11-13T01:31:33.018Z,5.82
2022-11-13T01:37:07.212Z,4.07
2022-11-13T01:39:54.586Z,4.30
2022-11-13T01:42:42.176Z,4.50
2022-11-13T01:46:00.214Z,5.35
2022-11-13T01:49:10.242Z,6.75
2022-11-13T01:52:08.294Z,8.52
2022-11-13T01:57:43.685Z,7.25
2022-11-13T02:00:31.111Z,8.68
2022-11-13T02:06:05.478Z,9.40
2022-11-13T02:11:40.597Z,6.75
2022-11-13T02:14:30.189Z,6.32
2022-11-13T02:17:34.401Z,6.50
2022-11-13T02:20:31.342Z,6.00
2022-11-13T02:23:27.965Z,5.80
2022-11-13T02:26:16.245Z,5.78
2022-11-13T02:29:03.511Z,6.45
2022-11-13T02:31:50.861Z,7.00
2022-11-13T02:34:38.146Z,7.68
2022-11-13T02:37:33.022Z,8.57
2022-11-13T02:40:20.660Z,7.93
2022-11-13T02:43:08.027Z,7.10
2022-11-13T02:48:45.569Z,7.88
2022-11-13T02:51:32.902Z,8.50
2022-11-13T02:57:07.421Z,89.95
2022-11-13T02:59:54.749Z,64.38
2022-11-13T03:02:41.971Z,49.13
2022-11-13T03:05:28.947Z,18.48
2022-11-13T03:08:17.080Z,12.48
2022-11-13T03:11:09.968Z,10.15
2022-11-13T03:13:57.437Z,8.63
2022-11-13T03:16:44.895Z,8.02
2022-11-13T03:19:32.166Z,7.68
2022-11-13T03:22:19.205Z,9.30
2022-11-13T03:25:10.446Z,14.23
2022-11-13T03:27:58.285Z,11.57
2022-11-13T03:33:33.965Z,9.17
2022-11-13T03:36:22.181Z,8.00
2022-11-13T03:39:12.903Z,7.80
2022-11-13T03:42:00.584Z,6.47
2022-11-13T03:44:48.938Z,7.82
2022-11-13T03:55:38.873Z,7.10
2022-11-13T03:58:47.078Z,7.13
2022-11-13T04:02:00.920Z,7.97
2022-11-13T04:04:48.618Z,10.30
2022-11-13T04:08:33.034Z,12.30
2022-11-13T04:11:27.988Z,10.05
2022-11-13T04:14:30.795Z,9.48
2022-11-13T04:35:17.246Z,9.70
2022-11-13T04:38:12.284Z,10.32
2022-11-13T04:41:23.152Z,10.50
2022-11-13T04:44:11.278Z,9.50
2022-11-13T04:47:02.088Z,9.15
2022-11-13T04:49:53.242Z,8.68
2022-11-13T04:52:40.613Z,8.10
2022-11-13T04:55:28.076Z,8.52
2022-11-13T04:58:16.621Z,10.02
2022-11-13T05:01:12.737Z,14.30
2022-11-13T05:04:03.680Z,12.50
2022-11-13T05:06:51.033Z,12.43
2022-11-13T05:09:38.396Z,9.82
2022-11-13T05:12:25.474Z,11.25
2022-11-13T05:17:59.705Z,18.25
2022-11-13T05:20:46.837Z,11.13
2022-11-13T05:23:34.481Z,10.98
2022-11-13T05:26:22.072Z,10.63
2022-11-13T05:29:09.917Z,10.45
2022-11-13T05:31:57.138Z,11.35
2022-11-13T05:37:31.576Z,11.18
2022-11-13T05:40:18.849Z,9.35
2022-11-13T05:43:05.987Z,7.50
2022-11-13T05:45:53.174Z,7.40
2022-11-13T05:48:41.225Z,7.78
2022-11-13T05:51:32.593Z,7.80
2022-11-13T05:54:22.766Z,7.32
2022-11-13T05:57:10.087Z,7.57
2022-11-13T05:59:57.343Z,7.90
2022-11-13T06:02:44.616Z,7.60
2022-11-13T06:05:31.540Z,8.48
2022-11-13T06:11:08.909Z,80.72
2022-11-13T06:13:58.226Z,53.40
2022-11-13T06:16:45.183Z,43.08
2022-11-13T06:19:32.530Z,14.38
2022-11-13T06:25:07.462Z,21.65
2022-11-13T06:27:55.045Z,28.50
2022-11-13T06:30:42.253Z,22.67
2022-11-13T06:36:22.876Z,21.60
2022-11-13T06:39:10.964Z,25.58
2022-11-13T06:41:58.318Z,28.77
2022-11-13T06:47:32.436Z,32.00
2022-11-13T06:50:19.465Z,31.75
2022-11-13T06:53:06.621Z,34.90
2022-11-13T06:55:54.079Z,29.67
2022-11-13T06:58:41.552Z,23.20
2022-11-13T07:01:28.857Z,21.35
2022-11-13T07:07:03.888Z,20.50
2022-11-13T07:09:51.213Z,21.60
2022-11-13T07:12:38.563Z,19.73
2022-11-13T07:18:12.675Z,18.83
2022-11-13T07:21:04.022Z,31.98
2022-11-13T07:23:52.074Z,43.50
2022-11-13T07:26:39.228Z,32.50
2022-11-13T07:29:26.680Z,27.02
2022-11-13T07:35:01.257Z,22.25
2022-11-13T07:37:48.751Z,19.63
2022-11-13T07:43:22.890Z,7.38
2022-11-13T07:46:10.314Z,6.18
2022-11-13T07:51:44.065Z,5.85
2022-11-13T07:57:18.163Z,7.63
2022-11-13T08:00:05.927Z,19.88
2022-11-13T08:02:53.518Z,16.65
2022-11-13T08:05:41.434Z,46.53
2022-11-13T08:08:29.469Z,73.30
2022-11-13T08:11:16.312Z,31.00
2022-11-13T08:14:03.725Z,15.75
2022-11-13T08:19:38.250Z,14.75
2022-11-13T08:25:13.917Z,10.43
2022-11-13T08:28:01.580Z,6.70
2022-11-13T08:30:48.893Z,5.90
2022-11-13T08:33:38.354Z,5.93
2022-11-13T08:36:25.640Z,5.85
2022-11-13T08:39:12.832Z,5.50
2022-11-13T08:42:00.067Z,5.97
2022-11-13T08:44:47.437Z,6.07
2022-11-13T08:47:34.520Z,6.45
2022-11-13T08:50:22.114Z,6.95
2022-11-13T08:53:09.649Z,9.38
2022-11-13T08:56:00.500Z,11.77
2022-11-13T08:58:47.665Z,17.00
2022-11-13T09:01:34.674Z,12.13
2022-11-13T09:04:21.915Z,11.43
2022-11-13T09:07:09.969Z,8.27
2022-11-13T09:09:57.574Z,6.63
2022-11-13T09:12:45.023Z,7.10
2022-11-13T09:15:34.356Z,9.15
2022-11-13T09:18:22.322Z,9.63
2022-11-13T09:21:09.624Z,12.20
2022-11-13T09:23:57.102Z,11.65
2022-11-13T09:26:44.481Z,12.65
2022-11-13T09:32:19.278Z,8.80
2022-11-13T09:35:06.461Z,7.75
2022-11-13T09:40:43.769Z,6.95
2022-11-13T09:43:47.848Z,6.70
2022-11-13T09:46:40.848Z,6.10
2022-11-13T09:49:36.437Z,5.70
2022-11-13T09:52:32.181Z,7.13
2022-11-13T09:55:24.270Z,6.47
2022-11-13T09:58:57.166Z,5.63
2022-11-13T10:02:09.060Z,6.28
2022-11-13T10:05:23.348Z,5.97
2022-11-13T10:08:32.424Z,5.65
2022-11-13T10:11:39.123Z,4.70
2022-11-13T10:14:30.272Z,4.75
2022-11-13T10:17:26.044Z,5.28
2022-11-13T10:20:16.727Z,7.97
2022-11-13T10:23:14.315Z,12.73
2022-11-13T10:26:22.968Z,14.77
2022-11-13T10:29:21.610Z,20.63
2022-11-13T10:32:38.315Z,19.20
2022-11-13T10:35:29.032Z,13.38
2022-11-13T10:38:37.543Z,14.10
2022-11-13T10:41:25.158Z,66.90
2022-11-13T10:44:29.340Z,44.72
2022-11-13T10:47:36.044Z,18.75
2022-11-13T10:50:31.837Z,6.15
2022-11-13T10:53:19.876Z,5.13
2022-11-13T10:56:23.523Z,5.15
2022-11-13T10:59:20.097Z,4.40
2022-11-13T11:02:28.479Z,4.57
2022-11-13T11:08:15.570Z,4.40
2022-11-13T11:11:26.371Z,4.63
2022-11-13T11:14:38.188Z,4.47
2022-11-13T11:17:50.528Z,4.70
2022-11-13T11:20:46.730Z,4.75
2022-11-13T11:23:42.453Z,4.53
2022-11-13T11:26:37.294Z,4.35
2022-11-13T11:29:50.049Z,4.25
2022-11-13T11:32:58.938Z,4.47
2022-11-13T11:36:02.704Z,4.65
2022-11-13T11:39:01.655Z,4.63
2022-11-13T11:42:01.419Z,4.43
2022-11-13T11:45:02.663Z,6.60
2022-11-13T11:47:51.092Z,6.32
2022-11-13T11:51:03.693Z,4.95
2022-11-13T11:54:35.381Z,4.32
2022-11-13T11:57:49.940Z,4.57
2022-11-13T12:00:42.307Z,4.10
2022-11-13T12:03:32.273Z,4.75
2022-11-13T12:06:37.464Z,3.92
2022-11-13T12:09:36.200Z,4.10
2022-11-13T12:12:45.664Z,4.22
2022-11-13T12:15:45.130Z,3.97
2022-11-13T12:18:38.363Z,4.10
2022-11-13T12:21:54.236Z,4.25
2022-11-13T12:25:25.691Z,4.82
2022-11-13T12:28:26.468Z,4.15
2022-11-13T12:31:39.835Z,4.30
2022-11-13T12:34:36.182Z,4.40
2022-11-13T12:37:28.291Z,4.43
2022-11-13T12:40:38.704Z,4.43
2022-11-13T12:43:55.837Z,3.60
2022-11-13T12:46:44.020Z,4.35
2022-11-13T12:49:34.702Z,4.10
2022-11-13T12:52:25.134Z,4.20
2022-11-13T12:55:39.524Z,4.00
2022-11-13T12:58:36.284Z,4.20
2022-11-13T13:01:25.070Z,3.90
2022-11-13T13:04:51.668Z,3.65
2022-11-13T13:08:04.742Z,4.05
2022-11-13T13:11:30.981Z,4.07
2022-11-13T13:14:42.689Z,4.25
2022-11-13T13:17:29.672Z,4.30
2022-11-13T13:20:16.512Z,4.88
2022-11-13T13:23:08.310Z,5.55
2022-11-13T13:26:04.942Z,5.78
2022-11-13T13:28:56.962Z,4.82
2022-11-13T13:31:58.482Z,4.50
2022-11-13T13:35:43.860Z,6.10
2022-11-13T13:38:35.610Z,6.93
2022-11-13T13:41:59.911Z,6.47
2022-11-13T13:45:16.907Z,5.13
2022-11-13T13:48:12.277Z,5.20
2022-11-13T13:51:01.828Z,5.20
2022-11-13T13:53:50.288Z,5.45
2022-11-13T13:56:43.721Z,4.63
2022-11-13T13:59:37.251Z,4.30
2022-11-13T14:02:25.527Z,4.60
2022-11-13T14:05:28.106Z,4.80
2022-11-13T14:08:19.747Z,5.95
2022-11-13T14:11:27.878Z,7.50
2022-11-13T14:14:21.409Z,6.38
2022-11-13T14:17:11.213Z,5.53
2022-11-13T14:20:01.693Z,4.40
2022-11-13T14:22:56.308Z,4.32
2022-11-13T14:25:45.290Z,4.10
2022-11-13T14:28:35.171Z,4.40
2022-11-13T14:31:30.673Z,4.22
2022-11-13T14:34:22.284Z,4.22
2022-11-13T14:37:31.785Z,4.30
2022-11-13T14:40:31.541Z,4.20
2022-11-13T14:43:24.927Z,4.03
2022-11-13T14:46:32.704Z,5.85
2022-11-13T14:49:32.280Z,7.25
2022-11-13T14:52:27.365Z,6.15
2022-11-13T14:55:27.179Z,5.32
2022-11-13T14:58:15.598Z,8.07
2022-11-13T15:01:24.334Z,7.20
2022-11-13T15:04:11.572Z,4.63
2022-11-13T15:07:02.138Z,5.03
2022-11-13T15:09:51.105Z,6.22
2022-11-13T15:12:38.151Z,6.32
2022-11-13T15:18:19.197Z,5.25
2022-11-13T15:21:06.384Z,4.82
2022-11-13T15:23:54.724Z,5.35
2022-11-13T15:26:42.666Z,5.53
2022-11-13T15:29:30.058Z,5.60
2022-11-13T15:35:04.921Z,4.85
2022-11-13T15:37:52.707Z,4.93
2022-11-13T15:40:40.849Z,5.60
2022-11-13T15:43:27.973Z,4.88
2022-11-13T15:46:18.124Z,5.63
2022-11-13T15:49:05.635Z,5.43
2022-11-13T15:51:53.102Z,5.13
2022-11-13T15:57:29.536Z,5.88
2022-11-13T16:00:28.871Z,4.88
2022-11-13T16:03:15.790Z,6.05
2022-11-13T16:06:05.330Z,5.72
2022-11-13T16:08:52.816Z,5.82
2022-11-13T16:11:40.801Z,6.00
2022-11-13T16:14:28.022Z,4.57
2022-11-13T16:17:23.546Z,5.30
2022-11-13T16:20:16.029Z,5.28
2022-11-13T16:23:03.221Z,5.45
2022-11-13T16:25:51.368Z,5.80
2022-11-13T16:29:07.180Z,5.47
2022-11-13T16:31:46.852Z,5.63
2022-11-13T16:34:33.911Z,5.00
2022-11-13T16:37:25.374Z,5.50
2022-11-13T16:40:24.640Z,5.45
2022-11-13T16:43:12.764Z,5.78
2022-11-13T16:46:01.953Z,4.82
2022-11-13T16:48:49.560Z,5.10
2022-11-13T16:51:37.347Z,5.28
2022-11-13T16:54:24.626Z,5.30
2022-11-13T16:57:13.804Z,5.30
2022-11-13T17:00:01.287Z,5.22
2022-11-13T17:02:53.268Z,5.68
2022-11-13T17:05:40.634Z,4.63
2022-11-13T17:08:27.795Z,5.18
2022-11-13T17:14:03.645Z,5.18
2022-11-13T17:16:51.034Z,4.90
2022-11-13T17:19:44.520Z,4.97
2022-11-13T17:22:31.969Z,4.90
2022-11-13T17:25:21.239Z,4.80
2022-11-13T17:28:08.464Z,4.97
2022-11-13T17:30:59.029Z,4.50
2022-11-13T17:33:47.139Z,4.20
2022-11-13T17:36:34.471Z,4.50
2022-11-13T17:39:22.029Z,4.60
2022-11-13T17:42:09.086Z,4.47
2022-11-13T17:47:43.982Z,3.90
2022-11-13T17:50:30.897Z,4.15
2022-11-13T17:53:17.893Z,3.88
2022-11-13T17:56:08.959Z,4.68
2022-11-13T17:58:56.098Z,4.80
2022-11-13T18:04:35.896Z,4.25
2022-11-13T18:07:26.600Z,4.22
2022-11-13T18:10:17.874Z,3.90
2022-11-13T18:13:05.057Z,4.00
2022-11-13T18:15:52.289Z,3.60
2022-11-13T18:21:33.138Z,3.50
2022-11-13T18:24:21.233Z,4.13
2022-11-13T18:27:09.206Z,3.63
2022-11-13T18:29:59.365Z,3.75
2022-11-13T18:32:50.557Z,4.05
2022-11-13T18:35:37.802Z,4.32
2022-11-13T18:38:24.824Z,5.10
2022-11-13T18:41:16.165Z,4.28
2022-11-13T18:44:03.270Z,4.65
2022-11-13T18:46:50.957Z,4.00
2022-11-13T18:49:38.877Z,3.50
2022-11-13T18:52:34.164Z,4.10
2022-11-13T18:58:08.265Z,4.15
2022-11-13T19:07:05.087Z,4.13
2022-11-13T19:09:52.302Z,4.53
2022-11-13T19:12:39.649Z,5.10
2022-11-13T19:18:13.776Z,5.18
2022-11-13T19:21:09.088Z,4.28
2022-11-13T19:23:57.567Z,4.25
2022-11-13T19:26:46.684Z,4.30
2022-11-13T19:29:33.844Z,4.65
2022-11-13T19:32:21.081Z,5.05
2022-11-13T19:35:08.551Z,4.80
2022-11-13T19:37:59.544Z,4.50
2022-11-13T19:40:52.191Z,4.35
2022-11-13T19:43:43.254Z,4.97
2022-11-13T19:46:34.368Z,4.57
2022-11-13T19:49:21.963Z,4.57
2022-11-13T19:54:56.279Z,4.53
2022-11-13T19:57:46.114Z,4.80
2022-11-13T20:00:34.220Z,4.97
2022-11-13T20:03:21.626Z,4.93
2022-11-13T20:06:10.909Z,5.15
2022-11-13T20:08:59.965Z,5.70
2022-11-13T20:11:47.158Z,6.22
2022-11-13T20:17:26.116Z,5.57
2022-11-13T20:20:13.529Z,5.22
2022-11-13T20:25:59.197Z,5.45
2022-11-13T20:28:46.157Z,5.53
2022-11-13T20:34:22.671Z,4.70
2022-11-13T20:39:57.909Z,4.25
2022-11-13T20:42:45.135Z,4.60
2022-11-13T20:48:19.176Z,4.15
2022-11-13T20:51:12.186Z,4.05
2022-11-13T20:53:59.461Z,4.00
2022-11-13T20:59:33.481Z,3.67
2022-11-13T21:02:20.527Z,3.80
2022-11-13T21:05:08.064Z,4.80
2022-11-13T21:07:55.551Z,3.60
2022-11-13T21:10:42.640Z,4.70
2022-11-13T21:16:18.913Z,3.65
2022-11-13T21:19:07.407Z,3.60
2022-11-13T21:21:54.557Z,3.90
2022-11-13T21:24:41.901Z,3.88
2022-11-13T21:27:29.588Z,4.93
2022-11-13T21:30:17.842Z,4.15
2022-11-13T21:33:04.881Z,4.07
2022-11-13T21:38:39.339Z,3.90
2022-11-13T21:41:27.092Z,3.60
2022-11-13T21:44:14.605Z,3.63
2022-11-13T21:49:48.400Z,4.07
2022-11-13T21:52:35.726Z,3.85
2022-11-13T21:55:23.181Z,3.42
2022-11-13T21:58:10.443Z,3.67
2022-11-13T22:03:44.409Z,3.70
2022-11-13T22:06:34.232Z,3.40
2022-11-13T22:09:26.280Z,4.15
2022-11-13T22:12:13.718Z,3.80
2022-11-13T22:15:00.776Z,3.95
2022-11-13T22:20:34.971Z,3.92
2022-11-13T22:23:22.581Z,3.65
2022-11-13T22:26:13.136Z,3.58
2022-11-13T22:29:01.203Z,4.13
2022-11-13T22:31:48.949Z,3.72
2022-11-13T22:34:36.393Z,3.92
2022-11-13T22:40:10.925Z,3.25
2022-11-13T22:42:58.232Z,3.80
2022-11-13T22:45:45.987Z,3.78
2022-11-13T22:48:34.890Z,3.40
2022-11-13T22:51:30.830Z,3.38
2022-11-13T22:54:18.480Z,3.67
2022-11-13T22:59:52.620Z,4.00
2022-11-13T23:02:44.434Z,3.70
2022-11-13T23:05:37.045Z,3.53
2022-11-13T23:08:24.454Z,3.90
2022-11-13T23:11:23.395Z,4.20
2022-11-13T23:14:13.794Z,4.50
2022-11-13T23:17:01.250Z,4.35
2022-11-13T23:19:48.265Z,4.53
2022-11-13T23:22:35.585Z,5.10
2022-11-13T23:25:22.854Z,4.72
2022-11-13T23:28:09.820Z,4.93
2022-11-13T23:33:44.249Z,5.25
2022-11-13T23:36:31.681Z,4.95
2022-11-13T23:39:18.741Z,4.88
2022-11-13T23:42:08.538Z,4.47
2022-11-13T23:47:44.813Z,5.40
2022-11-13T23:50:32.030Z,4.40
2022-11-13T23:56:06.865Z,4.82
2022-11-13T23:58:54.378Z,4.53
